Weather observations for the past three days for
Bowman Regional Airport
Imperial (Metric)
Date Time (mdt) Wind (mph) Vis. (mi.) Weather Sky Cond. Temperature (ºF) Relative Humidity Wind Chill (°F) Heat Index (°F) Pressure Precipitation (in)
Air Dwpt 6 hour altimeter (in) sea level (mb) 1 hr 3 hr 6 hr
Max. Min.
06 06:15 E 12 10.00 Fair CLR 60.8 60.8 100% 29.96 0.0
06 05:55 E 12 10.00 Fair CLR 62.6 62.6 100% 29.97 0.0
06 05:35 NE 6 G 12 10.00 Fair CLR 62.6 62.6 100% 29.97 0.0
06 05:15 NE 9 10.00 Fair CLR 62.6 62.6 100% 29.97 0.0
06 04:55 E 9 10.00 Thunderstorm in Vicinity CLR 62.6 62.6 100% 29.97 0.0
06 04:35 NE 6 10.00 Fair CLR 62.6 62.6 100% 29.96 0.0
06 04:15 Vrbl 6 10.00 Fair CLR 64.4 64.4 100% 29.96 0.0
06 03:55 S 5 10.00 Fair CLR 64.4 64.4 100% 29.94 0.0
06 03:35 Calm 10.00 Fair CLR 64.4 64.4 100% 29.95 0.0
06 03:15 SE 7 10.00 Fair CLR 64.4 64.4 100% 29.95 0.0
06 02:55 E 6 10.00 Fair CLR 68 68 100% 29.95 0.0
06 02:35 Calm 10.00 Fair CLR 64.4 64.4 100% 29.95 0.0
06 02:15 S 5 10.00 Fair CLR 66.2 66.2 100% 29.95 0.0
06 01:55 Calm 10.00 Fair CLR 66.2 66.2 100% 29.95 0.0
06 01:35 SE 5 10.00 Fair CLR 66.2 66.2 100% 29.96 0.0
06 01:15 Calm 10.00 Fair CLR 64.4 64.4 100% 29.95 0.0
06 00:55 S 6 10.00 Fair CLR 68 66.2 94% 29.95 0.0
06 00:35 Calm 10.00 Fair CLR 68 66.2 94% 29.96 0.0
06 00:15 S 7 10.00 Fair CLR 68 66.2 94% 29.97 0.0
05 23:55 SE 5 10.00 Fair CLR 68 66.2 94% 29.97 0.0
05 23:35 S 6 10.00 Fair CLR 68 66.2 94% 29.97 0.0
05 23:15 S 5 G 14 10.00 Fair CLR 69.8 64.4 83% 29.97 0.0
05 22:55 S 10 10.00 Fair CLR 69.8 64.4 83% 29.98 0.0
05 22:35 S 13 10.00 Fair CLR 69.8 64.4 83% 29.98 0.0
05 22:15 S 13 10.00 Fair CLR 71.6 64.4 78% 29.98 0.0
05 21:55 SE 13 10.00 Fair CLR 73.4 62.6 69% 29.98 0.0
05 21:35 SE 8 10.00 Fair CLR 73.4 55.4 53% 29.98 0.0
05 21:15 SE 7 10.00 Fair CLR 78.8 51.8 39% 79 29.96 0.0
05 20:55 Calm 10.00 Fair CLR 80.6 51.8 37% 80 29.96 0.0
05 20:35 NE 3 10.00 Fair CLR 78.8 51.8 39% 79 29.95 0.0
05 20:15 Calm 10.00 Fair CLR 78.8 53.6 42% 79 29.94 0.0
05 19:55 S 7 10.00 Fair CLR 82.4 50 32% 81 29.94 0.0
05 19:35 S 8 10.00 Fair CLR 82.4 51.8 35% 81 29.94 0.0
05 19:15 S 9 10.00 Fair CLR 82.4 53.6 37% 81 29.94 0.0
05 18:55 S 7 10.00 Fair CLR 84.2 55.4 37% 83 29.94 0.0
05 18:35 S 8 10.00 Fair CLR 86 55.4 35% 85 29.94 0.0
05 18:15 Calm 10.00 Fair CLR 91.4 50 24% 88 29.93 0.0
05 17:15 Calm 10.00 Fair CLR 93.2 50 23% 90 29.92 0.0
05 16:55 W 7 10.00 Fair CLR 93.2 50 23% 90 29.91 0.0
05 16:35 Calm 10.00 Fair CLR 93.2 50 23% 90 29.92 0.0
05 15:35 NW 6 10.00 Fair CLR 93.2 53.6 26% 91 29.93 0.0
05 15:15 Vrbl 6 G 13 10.00 Fair CLR 91.4 53.6 28% 89 29.94 0.0
05 14:55 Vrbl 3 10.00 Fair CLR 91.4 51.8 26% 89 29.94 0.0
05 14:35 W 8 10.00 Fair CLR 91.4 53.6 28% 89 29.94 0.0
05 14:15 Vrbl 6 G 15 10.00 Fair CLR 91.4 51.8 26% 89 29.93 0.0
05 13:55 W 9 10.00 Fair CLR 89.6 53.6 29% 87 29.94 0.0
05 11:55 SW 12 G 18 10.00 Fair CLR 82.4 53.6 37% 81 29.94 0.0
05 11:35 SW 13 G 18 10.00 Fair CLR 80.6 55.4 42% 81 29.95 0.0
05 11:15 SW 13 10.00 Fair CLR 78.8 55.4 45% 79 29.95 0.0
05 10:55 S 8 10.00 Fair CLR 77 57.2 51% 79 29.95 0.0
05 10:35 SW 8 10.00 Fair CLR 75.2 57.2 54% 78 29.95 0.0
05 10:15 S 10 10.00 Fair CLR 75.2 60.8 61% 77 29.95 0.0
05 09:55 SW 12 10.00 Fair CLR 71.6 64.4 78% 29.95 0.0
05 09:35 SW 8 10.00 Fair CLR 71.6 66.2 83% 29.95 0.0
05 09:15 S 6 10.00 Mostly Cloudy BKN004 68 68 100% 29.95 0.0
05 08:55 S 6 4.00 Fog/Mist OVC003 66.2 66.2 100% 29.94 0.0
05 08:35 SE 6 0.50 Fog OVC002 64.4 64.4 100% 29.94 0.0
05 08:15 SE 6 0.15 Fog OVC003 64.4 64.4 100% 29.94 0.0
05 07:55 SE 8 8.00 A Few Clouds FEW003 64.4 64.4 100% 29.93 0.0
05 07:35 S 5 1.50 Fog/Mist CLR 62.6 62.6 100% 29.92 0.0
05 07:15 SE 9 0.15 Fog VV000 60.8 60.8 100% 29.91 0.0
05 06:55 SE 10 0.15 Fog BKN001 59 59 100% 29.88 0.0
05 05:35 S 6 9.00 Fair CLR 62.6 62.6 100% 29.86 0.0
05 05:15 Calm 10.00 Fair CLR 62.6 62.6 100% 29.85 0.0
05 04:55 SE 5 9.00 Fair CLR 62.6 62.6 100% 29.85 0.0
05 04:35 SE 9 10.00 Fair CLR 62.6 62.6 100% 29.84 0.0
05 04:15 SE 6 10.00 Fair CLR 62.6 62.6 100% 29.85 0.0
05 03:55 S 8 10.00 Fair CLR 64.4 64.4 100% 29.85 0.0
05 03:35 S 10 10.00 Fair CLR 66.2 66.2 100% 29.84 0.0
05 03:15 SE 10 10.00 Fair CLR 66.2 66.2 100% 29.84 0.0
05 02:55 SE 12 G 17 10.00 Fair CLR 66.2 66.2 100% 29.85 0.0
05 02:35 SE 16 10.00 Fair CLR 68 68 100% 29.85 0.0
05 02:15 SE 14 10.00 Fair CLR 68 68 100% 29.85 0.0
05 01:55 SE 13 10.00 Fair CLR 68 68 100% 29.85 0.0
05 01:35 SE 14 10.00 Fair CLR 68 68 100% 29.85 0.0
05 01:15 SE 14 10.00 Fair CLR 68 68 100% 29.85 0.0
05 00:55 SE 12 10.00 Fair CLR 68 68 100% 29.85 0.0
05 00:35 SE 13 10.00 Fair CLR 69.8 69.8 100% 29.85 0.0
05 00:15 SE 14 G 20 10.00 Fair CLR 69.8 69.8 100% 29.84 0.0
04 23:55 SE 16 10.00 Fair CLR 71.6 69.8 94% 29.84 0.0
04 23:35 SE 18 10.00 Fair CLR 71.6 69.8 94% 29.84 0.0
04 23:15 SE 21 G 26 10.00 Fair and Breezy CLR 73.4 69.8 89% 29.84 0.0
04 22:55 SE 20 10.00 Fair CLR 73.4 68 83% 29.84 0.0
04 22:35 SE 18 10.00 Fair CLR 73.4 68 83% 29.84 0.0
04 22:15 SE 20 G 25 10.00 Fair CLR 75.2 66.2 74% 77 29.84 0.0
04 21:55 SE 18 10.00 Fair CLR 75.2 64.4 69% 77 29.85 0.0
04 21:35 SE 18 G 26 10.00 Fair CLR 75.2 62.6 65% 77 29.85 0.0
04 21:15 SE 16 10.00 Fair CLR 77 60.8 57% 79 29.85 0.0
04 20:55 SE 20 G 28 10.00 Fair CLR 78.8 59 51% 80 29.85 0.0
04 20:35 SE 18 G 24 10.00 Fair CLR 78.8 55.4 45% 79 29.84 0.0
04 20:15 SE 20 10.00 Fair CLR 80.6 53.6 39% 80 29.83 0.0
04 19:55 SE 21 10.00 Fair and Breezy CLR 82.4 51.8 35% 81 29.83 0.0
04 19:35 SE 20 G 25 10.00 Fair CLR 84.2 51.8 33% 82 29.82 0.0
04 19:15 SE 20 G 26 10.00 Fair CLR 86 53.6 33% 84 29.82 0.0
04 18:55 SE 22 G 30 10.00 Fair and Breezy CLR 87.8 53.6 31% 86 29.82 0.0
04 18:35 SE 22 G 30 10.00 Fair and Breezy CLR 89.6 55.4 31% 88 29.81 0.0
04 17:55 S 23 G 31 10.00 Fair and Breezy CLR 91.4 53.6 28% 89 29.81 0.0
04 17:35 S 29 G 37 10.00 Fair and Windy CLR 93.2 51.8 24% 90 29.8 0.0
04 17:15 S 24 G 36 10.00 Fair and Breezy CLR 95 50 22% 92 29.8 0.0
04 16:55 S 24 G 35 10.00 Fair and Breezy CLR 95 51.8 23% 92 29.8 0.0
04 16:35 S 29 G 38 10.00 Fair and Windy CLR 95 51.8 23% 92 29.8 0.0
04 16:15 S 26 G 41 10.00 A Few Clouds and Windy FEW120 95 51.8 23% 92 29.8 0.0
04 15:55 S 25 G 37 10.00 Partly Cloudy and Breezy SCT120 93.2 51.8 24% 90 29.8 0.0
04 15:35 SE 21 G 31 10.00 A Few Clouds and Breezy FEW110 93.2 57.2 30% 92 29.8 0.0
04 15:15 SE 24 G 32 10.00 Fair and Breezy CLR 93.2 59 32% 93 29.81 0.0
04 14:55 SE 21 G 28 10.00 Fair and Breezy CLR 93.2 60.8 34% 93 29.81 0.0
04 14:35 SE 22 G 30 10.00 Fair and Breezy CLR 91.4 59 34% 91 29.82 0.0
04 14:15 SE 21 G 26 10.00 Fair and Breezy CLR 91.4 60.8 36% 91 29.83 0.0
04 13:55 S 15 G 24 10.00 Fair CLR 89.6 60.8 38% 90 29.84 0.0
04 13:35 S 16 10.00 Fair CLR 87.8 60.8 40% 88 29.85 0.0
04 13:15 S 15 G 21 10.00 Fair CLR 86 60.8 43% 86 29.86 0.0
04 12:55 S 17 G 24 10.00 Fair CLR 86 60.8 43% 86 29.87 0.0
04 12:35 S 16 10.00 Fair CLR 84.2 62.6 48% 85 29.87 0.0
04 12:15 SE 14 G 21 10.00 Fair CLR 82.4 62.6 51% 83 29.88 0.0
04 11:55 S 16 G 23 10.00 Fair CLR 80.6 64.4 58% 82 29.88 0.0
04 11:35 S 15 G 25 10.00 Fair CLR 78.8 64.4 61% 81 29.89 0.0
04 11:15 S 14 G 23 10.00 Fair CLR 77 64.4 65% 79 29.9 0.0
04 10:55 S 20 10.00 Fair CLR 77 64.4 65% 79 29.9 0.0
04 10:35 SE 15 G 23 10.00 Fair CLR 75.2 66.2 74% 77 29.91 0.0
04 09:35 SE 24 G 32 10.00 A Few Clouds and Breezy FEW006 68 68 100% 29.89 0.0
04 09:15 SE 18 G 31 10.00 Mostly Cloudy BKN003 64.4 64.4 100% 29.89 0.0
04 08:55 SE 25 0.50 Fog/Mist and Breezy OVC003 64.4 64.4 100% 29.89 0.0
04 08:35 SE 15 G 22 0.50 Fog/Mist OVC003 64.4 64.4 100% 29.91 0.0
04 08:15 SE 15 0.15 Fog OVC002 64.4 64.4 100% 29.91 0.0
04 07:55 SE 12 0.15 Fog OVC003 62.6 62.6 100% 29.91 0.0
04 07:35 SE 8 0.75 Fog/Mist OVC003 59 59 100% 29.9 0.0
04 07:15 E 6 0.15 Fog OVC001 55.4 55.4 100% 29.9 0.0
04 06:55 E 9 0.50 Fog VV005 55.4 55.4 100% 29.9 0.0
04 06:35 E 8 1.75 Fog/Mist CLR 57.2 57.2 100% 29.89 0.0
04 06:15 E 9 1.25 Fog/Mist CLR 55.4 55.4 100% 29.89 0.0
04 05:55 E 10 4.00 Fog/Mist CLR 55.4 55.4 100% 29.9 0.0
04 05:35 SE 10 3.00 Fog/Mist CLR 55.4 55.4 100% 29.9 0.0
04 05:15 SE 9 6.00 Fog/Mist CLR 55.4 55.4 100% 29.9 0.0
04 04:55 SE 12 10.00 Fair CLR 59 59 100% 29.9 0.0
04 04:35 SE 12 10.00 Fair CLR 57.2 57.2 100% 29.9 0.0
04 04:15 SE 10 10.00 Fair CLR 57.2 57.2 100% 29.9 0.0
04 03:55 SE 9 10.00 Fair CLR 57.2 57.2 100% 29.91 0.0
04 03:35 SE 7 10.00 Fair CLR 57.2 57.2 100% 29.91 0.0
04 03:15 SE 7 10.00 Fair CLR 57.2 57.2 100% 29.91 0.0
04 02:35 E 9 10.00 Fair CLR 57.2 57.2 100% 29.91 0.0
04 02:15 E 8 10.00 Fair CLR 57.2 57.2 100% 29.91 0.0
04 01:55 E 7 10.00 Fair CLR 59 59 100% 29.9 0.0
04 01:35 E 3 10.00 Fair CLR 60.8 60.8 100% 29.9 0.0
04 01:15 E 7 10.00 Fair CLR 60.8 60.8 100% 29.9 0.0
04 00:55 E 6 10.00 Fair CLR 60.8 60.8 100% 29.9 0.0
04 00:35 NE 6 10.00 Fair CLR 62.6 60.8 94% 29.9 0.0
04 00:15 E 6 10.00 Fair CLR 62.6 60.8 94% 29.9 0.0
03 23:55 Calm 10.00 Fair CLR 62.6 60.8 94% 29.9 0.0
03 23:35 Calm 10.00 Fair CLR 62.6 60.8 94% 29.89 0.0
03 23:15 E 6 10.00 Fair CLR 64.4 60.8 88% 29.88 0.0
03 22:55 NE 5 10.00 Fair CLR 62.6 60.8 94% 29.88 0.0
03 22:35 E 8 10.00 Fair CLR 64.4 60.8 88% 29.88 0.0
03 22:15 E 9 10.00 Fair CLR 64.4 60.8 88% 29.89 0.0
03 21:55 E 8 10.00 Fair CLR 64.4 60.8 88% 29.89 0.0
03 21:35 NE 6 10.00 Fair CLR 64.4 62.6 94% 29.88 0.0
03 21:15 E 9 10.00 Fair CLR 68 62.6 83% 29.88 0.0
03 20:55 E 9 10.00 Fair CLR 68 62.6 83% 29.88 0.0
03 20:35 SE 8 10.00 Fair CLR 68 62.6 83% 29.87 0.0
03 20:15 SE 8 10.00 Fair CLR 68 62.6 83% 29.86 0.0
03 19:55 E 9 10.00 Fair CLR 71.6 60.8 69% 29.85 0.0
03 19:35 E 10 10.00 Fair CLR 71.6 59 65% 29.85 0.0
03 19:15 E 12 10.00 Fair CLR 77 55.4 47% 79 29.83 0.0
03 18:55 E 6 10.00 Fair CLR 80.6 41 24% 79 29.83 0.0
03 18:35 N 7 10.00 Fair CLR 82.4 39.2 21% 80 29.82 0.0
03 18:15 N 7 10.00 Fair CLR 86 41 20% 83 29.82 0.0
03 17:55 NW 5 10.00 Fair CLR 86 39.2 19% 83 29.82 0.0
03 17:35 W 10 10.00 Fair CLR 87.8 39.2 18% 84 29.82 0.0
03 17:15 NW 8 G 18 10.00 A Few Clouds FEW110 87.8 39.2 18% 84 29.81 0.0
03 16:55 W 10 G 17 10.00 A Few Clouds FEW110 87.8 39.2 18% 84 29.81 0.0
03 16:35 NW 10 10.00 A Few Clouds FEW110 86 41 20% 83 29.81 0.0
03 16:15 SW 7 10.00 A Few Clouds FEW110 87.8 44.6 22% 85 29.81 0.0
03 15:55 W 6 10.00 A Few Clouds FEW120 84.2 46.4 27% 82 29.81 0.0
03 15:35 NW 15 10.00 Partly Cloudy FEW100 SCT120 86 46.4 25% 83 29.81 0.0
03 15:15 W 13 10.00 Partly Cloudy SCT100 SCT120 87.8 44.6 22% 85 29.8 0.0
03 14:55 SW 12 10.00 A Few Clouds FEW100 87.8 44.6 22% 85 29.8 0.0
03 14:35 Vrbl 3 G 14 10.00 Fair CLR 86 46.4 25% 83 29.81 0.0
03 14:15 NW 6 G 13 10.00 Fair CLR 86 46.4 25% 83 29.81 0.0
03 13:55 W 8 G 15 10.00 Fair CLR 86 48.2 27% 83 29.81 0.0
03 13:35 W 10 G 16 10.00 Fair CLR 84.2 46.4 27% 82 29.8 0.0
03 13:15 NW 7 10.00 Fair CLR 84.2 50 31% 82 29.8 0.0
03 12:55 NE 10 10.00 Fair CLR 82.4 50 32% 81 29.79 0.0
03 12:35 NE 8 G 15 10.00 Fair CLR 80.6 53.6 39% 80 29.79 0.0
03 12:15 NE 14 G 20 10.00 Fair CLR 77 59 54% 79 29.79 0.0
03 11:55 NE 14 G 21 10.00 Fair CLR 75.2 59 57% 78 29.8 0.0
03 11:35 NE 17 G 24 10.00 Fair CLR 73.4 60.8 65% 29.8 0.0
03 11:15 NE 15 G 22 10.00 Fair CLR 69.8 64.4 83% 29.82 0.0
03 10:55 N 21 10.00 A Few Clouds and Breezy FEW012 68 64.4 88% 29.83 0.0
03 10:35 N 22 10.00 Mostly Cloudy and Breezy BKN010 64.4 64.4 100% 29.83 0.0
03 10:15 N 16 10.00 Mostly Cloudy BKN008 64.4 64.4 100% 29.83 0.0
03 09:55 NW 17 G 23 10.00 Overcast OVC007 64.4 64.4 100% 29.83 0.0
03 09:35 NW 16 10.00 Overcast OVC005 62.6 62.6 100% 29.84 0.0
03 09:15 NW 7 9.00 Overcast OVC005 62.6 62.6 100% 29.81 0.0
03 08:55 N 13 7.00 Overcast OVC004 62.6 62.6 100% 29.8 0.0
03 08:35 N 12 8.00 Overcast OVC004 62.6 62.6 100% 29.79 0.0
03 08:15 N 9 5.00 Fog/Mist OVC004 62.6 62.6 100% 29.78 0.0
03 07:55 N 12 4.00 Fog/Mist OVC004 62.6 62.6 100% 29.76 0.0
03 07:35 N 15 G 21 2.50 Fog/Mist OVC003 62.6 62.6 100% 29.75 0.0
03 07:15 N 16 0.25 Fog OVC002 62.6 62.6 100% 29.75 0.0
03 06:55 N 15 0.15 Fog OVC002 60.8 60.8 100% 29.75 0.0
03 06:35 N 12 0.15 Fog OVC002 59 59 100% 29.75 0.0
Date Time (mdt) Wind (mph) Vis. (mi.) Weather Sky Cond. Air Dwpt Max. Min. Relative Humidity Wind Chill (°F) Heat Index (°F) altimeter (in) sea level (mb) 1 hr 3 hr 6 hr
6 hour
Temperature (ºF) Pressure Precipitation (in)